Time;durP1;ratioP1;P1;durP2;ratioP2;P2;SDS_P1;SDS_P2;PMS_P1;PMS_P2;Temp;Humidity;BMP_temperature;BMP_pressure;BME280_temperature;BME280_humidity;BME280_pressure;Samples;Min_cycle;Max_cycle;Signal;HPM_P1;HPM_P2
2021/12/30 00:00:35;;;;;;;25.20;4.10;;;9.10;99.90;;;;;;5027200;28;20045;-76
2021/12/30 00:03:01;;;;;;;34.88;4.80;;;9.10;99.90;;;;;;5019606;28;20061;-76
2021/12/30 00:05:27;;;;;;;28.77;4.68;;;9.00;99.90;;;;;;5001347;28;20085;-75
2021/12/30 00:07:53;;;;;;;32.88;5.30;;;9.00;99.90;;;;;;5020448;28;20087;-78
2021/12/30 00:10:19;;;;;;;30.90;4.95;;;9.00;99.90;;;;;;5002883;28;20048;-76
2021/12/30 00:12:45;;;;;;;30.05;5.63;;;9.00;99.90;;;;;;5021660;28;20056;-82
2021/12/30 00:15:11;;;;;;;26.50;5.25;;;8.90;99.90;;;;;;5007718;28;20115;-75
2021/12/30 00:17:37;;;;;;;44.10;5.40;;;8.90;99.90;;;;;;5020214;28;20410;-76
2021/12/30 00:20:05;;;;;;;30.55;4.38;;;8.90;99.90;;;;;;5004457;28;20052;-75
2021/12/30 00:22:31;;;;;;;36.40;5.20;;;8.90;99.90;;;;;;5020399;28;20049;-75
2021/12/30 00:24:57;;;;;;;26.50;4.18;;;8.90;99.90;;;;;;5032918;28;20053;-75
2021/12/30 00:27:23;;;;;;;36.30;5.40;;;8.90;99.90;;;;;;5012365;28;20048;-75
2021/12/30 00:29:48;;;;;;;33.35;4.50;;;8.90;99.90;;;;;;5030786;28;20053;-76
2021/12/30 00:32:14;;;;;;;29.67;4.57;;;8.80;99.90;;;;;;5010112;28;20055;-76
2021/12/30 00:34:39;;;;;;;33.42;4.65;;;8.80;99.90;;;;;;5000876;28;20048;-77
2021/12/30 00:37:05;;;;;;;32.08;4.57;;;8.80;99.90;;;;;;5020639;28;20057;-74
2021/12/30 00:39:31;;;;;;;35.95;5.10;;;8.70;99.90;;;;;;5013427;28;20051;-74
2021/12/30 00:41:57;;;;;;;35.15;5.18;;;8.60;99.90;;;;;;5012899;28;20045;-74
2021/12/30 00:44:23;;;;;;;33.30;6.53;;;8.60;99.90;;;;;;4997389;28;20103;-75
2021/12/30 00:46:49;;;;;;;35.47;4.47;;;8.60;99.90;;;;;;5013184;28;20045;-80
2021/12/30 00:49:14;;;;;;;;;;;8.50;99.90;;;;;;5013524;28;20521;-78
2021/12/30 00:51:41;;;;;;;40.22;5.28;;;8.50;99.90;;;;;;5012483;28;19929;-75
2021/12/30 00:54:07;;;;;;;37.72;5.95;;;8.50;99.90;;;;;;5012617;28;20160;-75
2021/12/30 00:56:32;;;;;;;32.15;5.13;;;8.50;99.90;;;;;;5030736;28;20124;-75
2021/12/30 00:58:58;;;;;;;40.92;5.97;;;8.40;99.90;;;;;;5013113;28;20494;-74
2021/12/30 01:01:25;;;;;;;33.78;5.00;;;8.40;99.90;;;;;;4997093;28;20086;-75
2021/12/30 01:03:52;;;;;;;29.40;4.85;;;8.40;99.90;;;;;;5004023;28;20457;-80
2021/12/30 01:06:18;;;;;;;31.70;5.32;;;8.40;99.90;;;;;;5016054;28;20059;-76
2021/12/30 01:08:44;;;;;;;47.05;6.30;;;8.40;99.90;;;;;;5032578;28;20049;-75
2021/12/30 01:11:12;;;;;;;38.35;5.53;;;8.30;99.90;;;;;;5032576;28;20136;-75
2021/12/30 01:13:42;;;;;;;47.05;6.78;;;8.20;99.90;;;;;;5026983;28;20053;-74
2021/12/30 01:16:18;;;;;;;36.70;5.97;;;8.20;99.90;;;;;;5017854;28;20132;-75
2021/12/30 01:19:01;;;;;;;36.08;5.00;;;8.20;99.90;;;;;;5016194;28;20080;-74
2021/12/30 01:21:29;;;;;;;35.13;4.95;;;8.20;99.90;;;;;;5028496;28;20080;-75
2021/12/30 01:23:56;;;;;;;34.15;5.15;;;8.20;99.90;;;;;;5029564;28;20056;-75
2021/12/30 01:26:23;;;;;;;67.38;7.63;;;8.10;99.90;;;;;;4996939;28;20049;-76
2021/12/30 01:28:49;;;;;;;37.88;5.40;;;8.20;99.90;;;;;;5029100;28;20077;-75
2021/12/30 01:31:16;;;;;;;40.50;5.57;;;8.10;99.90;;;;;;4996098;28;20076;-75
2021/12/30 01:33:44;;;;;;;35.10;6.15;;;8.10;99.90;;;;;;5013015;28;20139;-75
2021/12/30 01:36:11;;;;;;;32.88;5.13;;;8.10;99.90;;;;;;4995603;28;20096;-74
2021/12/30 01:38:37;;;;;;;33.00;5.43;;;8.10;99.90;;;;;;5020299;28;20057;-75
2021/12/30 01:41:04;;;;;;;37.42;5.25;;;8.10;99.90;;;;;;4995361;28;20053;-75
2021/12/30 01:43:33;;;;;;;32.58;5.90;;;8.10;99.90;;;;;;5009792;28;20170;-74
2021/12/30 01:45:59;;;;;;;39.17;6.03;;;8.10;99.90;;;;;;5012257;28;20081;-76
2021/12/30 01:48:24;;;;;;;30.27;5.25;;;8.20;99.90;;;;;;5013046;28;20116;-75
2021/12/30 01:50:51;;;;;;;37.08;4.85;;;8.20;99.90;;;;;;4998885;28;20068;-75
2021/12/30 01:53:17;;;;;;;42.88;5.68;;;8.20;99.90;;;;;;5027028;28;20092;-75
2021/12/30 01:55:44;;;;;;;31.15;5.57;;;8.20;99.90;;;;;;5012433;28;20045;-75
2021/12/30 01:58:10;;;;;;;31.08;5.45;;;8.10;99.90;;;;;;5011213;28;20107;-77
2021/12/30 02:00:39;;;;;;;40.65;5.95;;;8.10;99.90;;;;;;4996478;28;20057;-75
2021/12/30 02:03:06;;;;;;;43.53;5.75;;;8.00;99.90;;;;;;5012281;28;20049;-76
2021/12/30 02:05:32;;;;;;;35.88;5.70;;;8.10;99.90;;;;;;5012982;28;20056;-75
2021/12/30 02:07:59;;;;;;;42.08;5.93;;;8.10;99.90;;;;;;5011003;28;20049;-76
2021/12/30 02:10:25;;;;;;;42.88;7.40;;;8.10;99.90;;;;;;5013556;28;20061;-76
2021/12/30 02:12:51;;;;;;;44.00;6.22;;;8.10;99.90;;;;;;5004159;28;20510;-75
2021/12/30 02:15:18;;;;;;;43.15;5.97;;;8.20;99.90;;;;;;5029306;28;20045;-75
2021/12/30 02:17:47;;;;;;;45.30;6.15;;;8.20;99.90;;;;;;4996270;28;20049;-74
2021/12/30 02:20:53;;;;;;;33.40;5.60;;;8.20;99.90;;;;;;5011940;28;20057;-75
2021/12/30 02:23:24;;;;;;;42.42;6.22;;;8.20;99.90;;;;;;5011543;28;20049;-75
2021/12/30 02:25:52;;;;;;;47.05;6.82;;;8.30;99.90;;;;;;5012841;28;20128;-76
2021/12/30 02:28:25;;;;;;;48.20;7.13;;;8.40;99.90;;;;;;5011470;28;20092;-75
2021/12/30 02:30:53;;;;;;;52.58;7.22;;;8.50;99.90;;;;;;5012637;28;20054;-76
2021/12/30 02:33:19;;;;;;;42.47;7.90;;;8.50;99.90;;;;;;4998455;28;20046;-75
2021/12/30 02:35:45;;;;;;;49.55;8.68;;;8.60;99.90;;;;;;5031404;28;20048;-77
2021/12/30 02:38:11;;;;;;;47.28;9.10;;;8.60;99.90;;;;;;5048823;28;20060;-75
2021/12/30 02:40:43;;;;;;;42.60;9.07;;;8.70;99.90;;;;;;5033270;28;20549;-76
2021/12/30 02:43:14;;;;;;;47.10;8.82;;;8.80;99.90;;;;;;5034730;28;20061;-76
2021/12/30 02:45:40;;;;;;;44.10;8.82;;;8.80;99.90;;;;;;5027161;28;20584;-75
2021/12/30 02:48:15;;;;;;;43.13;9.52;;;8.90;99.90;;;;;;5033004;28;20053;-75
2021/12/30 02:50:42;;;;;;;50.33;9.60;;;8.90;99.90;;;;;;5031350;28;20112;-75
2021/12/30 02:53:08;;;;;;;45.95;9.43;;;8.90;99.90;;;;;;5030488;28;20423;-75
2021/12/30 02:55:34;;;;;;;46.63;10.40;;;8.90;99.90;;;;;;5015739;28;20052;-75
2021/12/30 02:58:00;;;;;;;51.60;11.98;;;9.00;99.90;;;;;;5016021;28;20132;-79
2021/12/30 03:00:28;;;;;;;50.80;12.63;;;9.00;99.90;;;;;;5035804;28;20102;-75
2021/12/30 03:02:54;;;;;;;54.75;13.13;;;9.10;99.90;;;;;;5032083;28;20053;-75
2021/12/30 03:05:21;;;;;;;51.10;13.07;;;9.10;99.90;;;;;;5024078;28;20041;-76
2021/12/30 03:07:47;;;;;;;56.67;11.95;;;9.10;99.90;;;;;;4998532;28;20064;-75
2021/12/30 03:10:18;;;;;;;54.08;12.77;;;9.20;99.90;;;;;;5022524;28;20037;-75
2021/12/30 03:12:45;;;;;;;61.45;12.88;;;9.20;99.90;;;;;;5034810;28;20044;-75
2021/12/30 03:15:13;;;;;;;50.78;13.50;;;9.20;99.90;;;;;;5018379;28;20057;-75
2021/12/30 03:17:39;;;;;;;47.90;12.18;;;9.30;99.90;;;;;;5033904;28;20057;-75
2021/12/30 03:20:09;;;;;;;54.83;13.52;;;9.30;99.90;;;;;;5014856;28;20140;-75
2021/12/30 03:22:39;;;;;;;53.60;12.82;;;9.30;99.90;;;;;;5030680;28;20065;-74
2021/12/30 03:25:10;;;;;;;59.72;13.40;;;9.30;99.90;;;;;;4998092;28;20056;-75
2021/12/30 03:27:36;;;;;;;52.92;13.80;;;9.40;99.90;;;;;;5014761;28;20053;-75
2021/12/30 03:30:06;;;;;;;54.45;13.15;;;9.40;99.90;;;;;;4998306;28;20049;-81
2021/12/30 03:32:32;;;;;;;57.50;14.38;;;9.40;99.90;;;;;;5032681;28;20049;-75
2021/12/30 03:34:58;;;;;;;52.85;13.77;;;9.50;99.90;;;;;;5034940;28;20072;-75
2021/12/30 03:37:23;;;;;;;60.58;14.25;;;9.50;99.90;;;;;;5023507;28;20142;-76
2021/12/30 03:39:49;;;;;;;50.75;14.70;;;9.50;99.90;;;;;;5024419;28;20084;-76
2021/12/30 03:42:16;;;;;;;55.80;15.00;;;9.50;99.90;;;;;;5028135;28;20508;-76
2021/12/30 03:44:42;;;;;;;54.63;14.25;;;9.50;99.90;;;;;;5034603;28;20179;-75
2021/12/30 03:47:12;;;;;;;50.95;14.88;;;9.60;99.90;;;;;;5030613;28;20059;-75
2021/12/30 03:49:38;;;;;;;53.90;14.00;;;9.50;99.90;;;;;;5031204;28;20049;-76
2021/12/30 03:52:04;;;;;;;45.45;13.20;;;9.60;99.90;;;;;;5004644;28;20060;-81
2021/12/30 03:54:30;;;;;;;47.45;13.68;;;9.90;99.90;;;;;;5017546;28;20053;-75
2021/12/30 03:56:56;;;;;;;44.58;11.70;;;9.60;99.90;;;;;;5034166;28;20059;-75
2021/12/30 03:59:22;;;;;;;52.20;13.50;;;9.70;99.90;;;;;;5011452;28;20057;-76
2021/12/30 04:01:47;;;;;;;57.00;12.25;;;9.70;99.90;;;;;;5031054;28;20068;-76
2021/12/30 04:04:13;;;;;;;48.78;12.15;;;9.70;99.90;;;;;;5030373;28;20555;-76
2021/12/30 04:06:39;;;;;;;47.17;11.82;;;9.70;99.90;;;;;;4997360;28;20045;-76
2021/12/30 04:09:06;;;;;;;49.33;11.32;;;9.70;99.90;;;;;;5013550;28;20046;-80
2021/12/30 04:11:34;;;;;;;43.75;11.82;;;9.70;99.90;;;;;;5013821;28;20459;-75
2021/12/30 04:14:02;;;;;;;49.53;12.60;;;9.70;99.90;;;;;;5014279;28;20042;-77
2021/12/30 04:16:27;;;;;;;49.45;12.73;;;9.70;99.90;;;;;;5013715;28;20057;-75
2021/12/30 04:18:53;;;;;;;47.83;10.95;;;9.70;99.90;;;;;;5014305;28;20095;-75
2021/12/30 04:21:20;;;;;;;49.97;13.38;;;9.60;99.90;;;;;;5012426;28;20125;-75
2021/12/30 04:23:46;;;;;;;46.65;12.00;;;9.60;99.90;;;;;;5012942;28;20052;-76
2021/12/30 04:26:12;;;;;;;50.17;11.77;;;9.60;99.90;;;;;;5001980;28;20048;-76
2021/12/30 04:28:38;;;;;;;52.00;13.02;;;9.50;99.90;;;;;;5033393;28;20049;-76
2021/12/30 04:31:04;;;;;;;52.10;12.93;;;9.50;99.90;;;;;;5017009;28;20049;-77
2021/12/30 04:33:30;;;;;;;61.53;13.80;;;9.50;99.90;;;;;;5033003;28;20053;-76
2021/12/30 04:35:57;;;;;;;;;;;9.60;99.90;;;;;;5033157;28;20705;-75
2021/12/30 04:38:28;;;;;;;51.20;13.40;;;9.60;99.90;;;;;;5032093;28;19970;-75
2021/12/30 04:40:54;;;;;;;61.00;14.15;;;9.60;99.90;;;;;;5021257;28;20112;-76
2021/12/30 04:43:20;;;;;;;51.78;14.05;;;9.70;99.90;;;;;;5012340;28;20672;-76
2021/12/30 04:45:47;;;;;;;53.38;13.38;;;9.70;99.90;;;;;;5013703;28;20049;-76
2021/12/30 04:48:14;;;;;;;55.42;13.20;;;9.70;99.90;;;;;;5018619;28;20080;-75
2021/12/30 04:50:40;;;;;;;59.15;14.57;;;9.70;99.90;;;;;;5032245;28;20049;-80
2021/12/30 04:53:06;;;;;;;61.50;15.90;;;9.80;99.90;;;;;;5028889;28;20111;-76
2021/12/30 04:55:32;;;;;;;55.63;14.70;;;9.80;99.90;;;;;;4996852;28;20546;-75
2021/12/30 04:57:57;;;;;;;66.05;16.55;;;9.90;99.90;;;;;;5013110;28;20092;-77
2021/12/30 05:00:23;;;;;;;83.75;16.83;;;9.90;99.90;;;;;;5030647;28;20080;-75
2021/12/30 05:03:22;;;;;;;82.30;16.52;;;9.90;99.90;;;;;;5013151;28;20042;-75
2021/12/30 05:05:44;;;;;;;78.50;16.77;;;9.90;99.90;;;;;;5011979;28;20045;-77
2021/12/30 05:08:11;;;;;;;85.47;17.27;;;9.90;99.90;;;;;;5025320;28;20049;-80
2021/12/30 05:10:37;;;;;;;79.93;17.42;;;9.90;99.90;;;;;;4996637;28;20164;-76
2021/12/30 05:13:05;;;;;;;76.95;16.27;;;9.90;99.90;;;;;;5012881;28;20142;-76
2021/12/30 05:15:32;;;;;;;75.25;16.98;;;9.90;99.90;;;;;;4996424;28;20045;-76
2021/12/30 05:17:58;;;;;;;78.50;17.13;;;9.90;99.90;;;;;;5013165;28;20048;-75
2021/12/30 05:20:23;;;;;;;71.43;16.30;;;10.00;99.90;;;;;;5012773;28;20045;-77
2021/12/30 05:22:49;;;;;;;73.70;16.25;;;10.00;99.90;;;;;;4996011;28;20091;-75
2021/12/30 05:25:18;;;;;;;61.55;14.18;;;10.00;99.90;;;;;;5012068;28;20142;-76
2021/12/30 05:27:44;;;;;;;78.05;16.80;;;10.10;99.90;;;;;;5012747;28;20187;-76
2021/12/30 05:30:11;;;;;;;74.82;14.95;;;10.10;99.90;;;;;;4996699;28;20120;-75
2021/12/30 05:32:37;;;;;;;78.75;16.10;;;10.10;99.90;;;;;;5011987;28;20491;-76
2021/12/30 05:35:05;;;;;;;75.70;15.50;;;10.10;99.90;;;;;;5012994;28;20064;-75
2021/12/30 05:37:31;;;;;;;92.22;15.90;;;10.20;99.90;;;;;;5019307;28;20045;-78
2021/12/30 05:39:57;;;;;;;69.40;14.68;;;10.20;99.90;;;;;;5014186;28;20405;-76
2021/12/30 05:42:23;;;;;;;66.25;14.40;;;10.20;99.90;;;;;;5028496;28;20050;-76
2021/12/30 05:44:50;;;;;;;;;;;10.20;99.90;;;;;;5016156;28;20057;-75
2021/12/30 05:47:16;;;;;;;84.70;15.25;;;10.30;99.90;;;;;;5032432;28;20405;-81
2021/12/30 05:49:41;;;;;;;73.93;14.55;;;10.20;99.90;;;;;;5032520;28;20041;-75
2021/12/30 05:52:07;;;;;;;74.60;14.82;;;10.30;99.90;;;;;;5015210;28;20380;-76
2021/12/30 05:54:33;;;;;;;72.47;14.75;;;10.30;99.90;;;;;;5012923;28;20060;-75
2021/12/30 05:56:58;;;;;;;85.28;16.80;;;10.40;99.90;;;;;;4996296;28;20076;-76
2021/12/30 05:59:24;;;;;;;73.07;14.90;;;10.40;99.90;;;;;;5023830;28;20475;-76
2021/12/30 06:01:50;;;;;;;81.45;15.15;;;10.40;99.90;;;;;;5029219;28;20071;-76
2021/12/30 06:04:16;;;;;;;83.00;14.90;;;10.50;99.90;;;;;;5012554;28;20053;-81
2021/12/30 06:06:41;;;;;;;78.40;16.23;;;10.50;99.90;;;;;;5011842;28;20049;-76
2021/12/30 06:09:07;;;;;;;73.68;14.65;;;10.50;99.90;;;;;;5012106;28;20450;-75
2021/12/30 06:11:33;;;;;;;89.18;16.63;;;10.60;99.90;;;;;;4995448;28;20506;-75
2021/12/30 06:13:59;;;;;;;73.25;15.00;;;10.60;99.90;;;;;;4996265;28;20156;-75
2021/12/30 06:16:25;;;;;;;99.63;18.85;;;10.60;99.90;;;;;;5014216;28;20057;-77
2021/12/30 06:18:50;;;;;;;90.90;17.05;;;10.60;99.90;;;;;;5016162;28;20132;-75
2021/12/30 06:21:16;;;;;;;73.50;15.30;;;10.70;99.90;;;;;;5033798;28;20136;-76
2021/12/30 06:23:42;;;;;;;67.30;14.57;;;10.70;99.90;;;;;;4982839;28;20046;-77
2021/12/30 06:26:08;;;;;;;87.57;16.75;;;10.80;99.90;;;;;;5000078;28;20399;-75
2021/12/30 06:28:33;;;;;;;68.13;14.57;;;10.80;99.90;;;;;;5015551;28;20080;-76
2021/12/30 06:30:59;;;;;;;73.80;16.05;;;10.80;99.90;;;;;;5016221;28;20045;-78
2021/12/30 06:33:25;;;;;;;66.30;15.30;;;10.90;99.90;;;;;;5023325;28;20125;-75
2021/12/30 06:35:50;;;;;;;68.50;14.13;;;10.90;99.90;;;;;;5018922;28;20060;-75
2021/12/30 06:38:16;;;;;;;65.55;14.75;;;10.90;99.90;;;;;;5034043;28;20477;-76
2021/12/30 06:40:42;;;;;;;71.82;15.43;;;11.00;99.90;;;;;;4999642;28;20106;-75
2021/12/30 06:43:09;;;;;;;62.80;14.32;;;11.10;99.90;;;;;;4999279;28;20398;-75
2021/12/30 06:45:34;;;;;;;64.57;13.88;;;11.10;99.90;;;;;;5025450;28;20061;-80
2021/12/30 06:48:00;;;;;;;66.43;14.98;;;11.10;99.90;;;;;;5019470;28;20060;-76
2021/12/30 06:50:31;;;;;;;65.43;14.10;;;11.20;99.90;;;;;;5034802;28;20528;-76
2021/12/30 06:52:57;;;;;;;74.90;15.18;;;11.20;99.90;;;;;;5034381;28;20056;-78
2021/12/30 06:55:23;;;;;;;57.20;13.13;;;11.20;99.90;;;;;;5035871;28;20179;-82
2021/12/30 06:57:48;;;;;;;68.70;15.98;;;11.20;99.90;;;;;;5035352;28;20056;-77
2021/12/30 07:00:15;;;;;;;60.60;14.32;;;11.30;99.90;;;;;;5036006;28;20045;-77
2021/12/30 07:02:41;;;;;;;;;;;11.30;99.90;;;;;;5034137;28;20131;-77
2021/12/30 07:05:07;;;;;;;57.50;13.93;;;11.30;99.90;;;;;;5016159;28;20314;-77
2021/12/30 07:07:33;;;;;;;56.55;15.32;;;11.30;99.90;;;;;;5024935;28;20374;-76
2021/12/30 07:09:58;;;;;;;52.05;14.23;;;11.40;99.90;;;;;;5018713;28;20045;-78
2021/12/30 07:12:24;;;;;;;52.85;13.88;;;11.40;99.90;;;;;;5035185;28;20056;-83
2021/12/30 07:14:50;;;;;;;57.78;15.15;;;11.40;99.90;;;;;;5018767;28;20136;-76
2021/12/30 07:17:16;;;;;;;42.72;13.18;;;11.40;99.90;;;;;;5035477;28;20657;-78
2021/12/30 07:19:41;;;;;;;46.70;12.27;;;11.40;99.90;;;;;;5002499;28;20049;-76
2021/12/30 07:22:07;;;;;;;57.35;14.75;;;11.40;99.90;;;;;;5035195;28;20041;-76
2021/12/30 07:24:33;;;;;;;48.15;11.60;;;11.40;99.90;;;;;;5035096;28;20099;-77
2021/12/30 07:26:58;;;;;;;42.30;12.25;;;11.40;99.90;;;;;;5002911;28;20083;-80
2021/12/30 07:29:24;;;;;;;40.40;12.25;;;11.40;99.90;;;;;;5036003;28;20107;-80
2021/12/30 07:31:50;;;;;;;42.33;11.38;;;11.40;99.90;;;;;;4986468;28;20055;-80
2021/12/30 07:34:16;;;;;;;50.22;12.57;;;11.40;99.90;;;;;;5016598;28;20574;-80
2021/12/30 07:36:41;;;;;;;;;;;11.40;99.90;;;;;;5015671;28;20049;-77
2021/12/30 07:39:07;;;;;;;35.35;10.30;;;11.40;99.90;;;;;;5015359;28;19921;-78
2021/12/30 07:41:33;;;;;;;29.35;8.63;;;11.40;99.90;;;;;;4998504;28;20046;-79
2021/12/30 07:43:59;;;;;;;30.75;7.78;;;11.40;99.90;;;;;;4983040;28;20140;-79
2021/12/30 07:46:24;;;;;;;27.48;8.57;;;11.40;99.90;;;;;;4999118;28;20111;-81
2021/12/30 07:48:50;;;;;;;24.42;6.88;;;11.40;99.90;;;;;;5025767;28;20049;-81
2021/12/30 07:51:16;;;;;;;24.02;6.40;;;11.40;99.90;;;;;;5034193;28;20490;-79
2021/12/30 07:53:42;;;;;;;21.55;6.65;;;11.50;99.90;;;;;;5034031;28;20045;-78
2021/12/30 07:56:08;;;;;;;17.02;6.20;;;11.50;99.90;;;;;;5018539;28;20056;-79
2021/12/30 07:58:34;;;;;;;19.20;6.22;;;11.50;99.90;;;;;;5021993;28;20120;-79
2021/12/30 08:00:59;;;;;;;18.42;5.25;;;11.50;99.90;;;;;;5020428;28;20454;-79
2021/12/30 08:03:25;;;;;;;14.25;4.68;;;11.50;99.90;;;;;;5018989;28;20049;-78
2021/12/30 08:05:51;;;;;;;13.32;4.20;;;11.50;99.90;;;;;;5027051;28;20044;-79
2021/12/30 08:08:17;;;;;;;13.40;4.32;;;11.50;99.90;;;;;;5034372;28;20481;-79
2021/12/30 08:10:43;;;;;;;13.43;4.88;;;11.50;99.90;;;;;;5033703;28;20056;-80
2021/12/30 08:13:08;;;;;;;10.98;4.35;;;11.50;99.90;;;;;;5025443;28;20049;-79
2021/12/30 08:15:34;;;;;;;11.82;4.28;;;11.50;99.90;;;;;;5014527;28;20046;-83
2021/12/30 08:18:00;;;;;;;12.25;4.30;;;11.60;99.90;;;;;;5014975;28;20414;-81
2021/12/30 08:20:27;;;;;;;10.68;4.00;;;11.60;99.90;;;;;;5017065;28;20191;-82
2021/12/30 08:22:53;;;;;;;9.13;3.97;;;11.60;99.90;;;;;;5013663;28;20512;-80
2021/12/30 08:25:19;;;;;;;;;;;11.60;99.90;;;;;;5014966;28;20490;-78
2021/12/30 08:27:45;;;;;;;9.38;3.70;;;11.60;99.90;;;;;;5016297;28;20432;-79
2021/12/30 08:30:13;;;;;;;;;;;11.60;99.90;;;;;;4998726;28;20462;-80
2021/12/30 08:32:40;;;;;;;11.02;3.83;;;11.60;99.90;;;;;;5001538;28;19921;-81
2021/12/30 08:35:07;;;;;;;7.85;3.53;;;11.60;99.90;;;;;;5001634;28;20052;-79
2021/12/30 08:40:10;;;;;;;10.63;3.88;;;11.70;99.90;;;;;;5869901;22;20069;-80
2021/12/30 08:42:37;;;;;;;11.40;4.22;;;11.70;99.90;;;;;;4959215;28;20415;-82
2021/12/30 08:45:04;;;;;;;14.40;5.75;;;11.70;99.90;;;;;;4971737;28;20116;-78
2021/12/30 08:47:31;;;;;;;16.80;5.90;;;11.70;99.90;;;;;;4956792;28;20047;-80
2021/12/30 08:49:57;;;;;;;18.30;6.85;;;11.80;99.90;;;;;;4952259;28;20047;-79
2021/12/30 08:52:25;;;;;;;17.70;6.72;;;11.80;99.90;;;;;;4952454;28;20328;-78
2021/12/30 08:54:51;;;;;;;20.25;7.28;;;11.80;99.90;;;;;;4936304;28;20109;-82
2021/12/30 08:57:19;;;;;;;22.45;8.57;;;11.90;99.90;;;;;;4938553;28;20047;-79
2021/12/30 08:59:45;;;;;;;25.73;8.75;;;11.90;99.90;;;;;;4948296;28;20080;-80
2021/12/30 09:02:10;;;;;;;22.60;8.30;;;11.90;99.90;;;;;;4951064;28;20060;-79
2021/12/30 09:04:36;;;;;;;28.45;9.40;;;12.00;99.90;;;;;;4953092;28;20447;-83
2021/12/30 09:07:03;;;;;;;30.05;10.68;;;12.00;99.90;;;;;;4952611;28;20051;-78
2021/12/30 09:09:30;;;;;;;25.25;9.75;;;12.00;99.90;;;;;;4952804;28;20512;-78
2021/12/30 09:11:55;;;;;;;;;;;12.10;99.90;;;;;;4937034;28;20496;-80
2021/12/30 09:14:21;;;;;;;23.00;9.32;;;12.10;99.90;;;;;;4953370;28;19980;-79
2021/12/30 09:16:48;;;;;;;;;;;12.10;99.90;;;;;;4969490;28;20554;-78
2021/12/30 09:19:15;;;;;;;23.58;9.25;;;12.20;99.90;;;;;;4950709;28;20300;-78
2021/12/30 09:21:42;;;;;;;27.85;11.73;;;12.20;99.90;;;;;;4949927;28;20101;-80
2021/12/30 09:24:09;;;;;;;20.73;9.07;;;12.20;99.90;;;;;;4950834;28;20042;-80
2021/12/30 09:26:36;;;;;;;22.10;8.93;;;12.20;99.90;;;;;;4935724;29;20059;-80
2021/12/30 09:29:10;;;;;;;27.80;10.48;;;12.20;99.90;;;;;;4932612;28;20105;-79
2021/12/30 09:31:40;;;;;;;17.80;7.68;;;12.20;99.90;;;;;;4951719;29;20130;-83
2021/12/30 09:34:06;;;;;;;19.38;7.70;;;12.20;99.90;;;;;;4919729;29;20097;-80
2021/12/30 09:36:32;;;;;;;17.85;8.35;;;12.20;99.90;;;;;;4935405;29;20086;-80
2021/12/30 09:38:57;;;;;;;15.73;8.32;;;12.20;99.90;;;;;;4934970;29;20046;-80
2021/12/30 09:41:23;;;;;;;17.50;7.75;;;12.30;99.90;;;;;;4935100;29;20069;-80
2021/12/30 09:43:49;;;;;;;20.63;8.07;;;12.30;99.90;;;;;;4921894;29;20571;-80
2021/12/30 09:46:15;;;;;;;17.35;8.27;;;12.20;99.90;;;;;;4935754;29;20730;-80
2021/12/30 09:48:40;;;;;;;19.00;8.43;;;12.20;99.90;;;;;;4935430;29;20102;-84
2021/12/30 09:51:08;;;;;;;27.15;9.07;;;12.20;99.90;;;;;;4939051;29;20047;-81
2021/12/30 09:53:34;;;;;;;20.60;8.10;;;12.20;99.90;;;;;;4956600;28;20050;-79
2021/12/30 09:55:59;;;;;;;24.20;9.25;;;12.20;99.90;;;;;;4958847;28;20437;-80
2021/12/30 09:58:27;;;;;;;24.35;9.68;;;12.20;99.90;;;;;;4936494;28;20733;-80
2021/12/30 10:00:53;;;;;;;22.30;10.55;;;12.20;99.90;;;;;;4953497;28;20100;-78
2021/12/30 10:03:18;;;;;;;29.05;10.02;;;12.20;99.90;;;;;;4975118;28;20090;-80
2021/12/30 10:05:44;;;;;;;21.25;10.00;;;12.20;99.90;;;;;;4953175;28;20117;-86
2021/12/30 10:08:20;;;;;;;23.90;9.98;;;12.20;99.90;;;;;;4958927;28;20070;-81
2021/12/30 10:11:06;;;;;;;23.50;10.13;;;12.20;99.90;;;;;;4958403;28;20061;-80
2021/12/30 10:13:32;;;;;;;29.63;10.65;;;12.20;99.90;;;;;;4954298;28;20051;-83
2021/12/30 10:16:01;;;;;;;25.35;10.43;;;12.20;99.90;;;;;;4942634;28;20069;-78
2021/12/30 10:18:42;;;;;;;28.02;9.75;;;12.20;99.90;;;;;;4958933;28;20483;-79
2021/12/30 10:21:23;;;;;;;24.95;9.82;;;12.20;99.90;;;;;;4958444;28;20575;-78
2021/12/30 10:23:58;;;;;;;27.30;10.57;;;12.30;99.90;;;;;;4956751;28;20057;-79
2021/12/30 10:26:25;;;;;;;23.33;8.98;;;12.30;99.90;;;;;;4934979;29;20095;-76
2021/12/30 10:29:02;;;;;;;26.67;8.35;;;12.20;99.90;;;;;;4936519;29;20133;-76
2021/12/30 10:31:31;;;;;;;25.88;9.88;;;12.30;99.90;;;;;;4954902;29;20059;-76
2021/12/30 10:34:01;;;;;;;25.25;9.45;;;12.30;99.90;;;;;;4938878;29;20054;-77
2021/12/30 10:36:38;;;;;;;25.83;8.75;;;12.30;99.90;;;;;;4938580;29;20051;-78
2021/12/30 10:39:26;;;;;;;28.88;8.30;;;12.30;99.90;;;;;;4937904;29;20475;-77
2021/12/30 10:42:20;;;;;;;32.10;9.02;;;12.30;99.90;;;;;;4969893;28;20054;-76
2021/12/30 10:44:49;;;;;;;21.30;7.40;;;12.30;99.90;;;;;;4971445;28;20047;-79
2021/12/30 10:47:15;;;;;;;20.58;7.30;;;12.30;99.90;;;;;;4972965;28;20054;-77
2021/12/30 10:49:41;;;;;;;20.38;7.68;;;12.30;99.90;;;;;;4951774;28;20538;-83
2021/12/30 10:52:07;;;;;;;20.98;6.97;;;12.30;99.90;;;;;;4938514;28;20558;-79
2021/12/30 10:54:37;;;;;;;17.65;7.35;;;12.30;99.90;;;;;;4951829;29;20043;-80
2021/12/30 10:57:06;;;;;;;20.05;7.32;;;12.30;99.90;;;;;;4954007;29;20061;-81
2021/12/30 10:59:39;;;;;;;20.13;6.20;;;12.30;99.90;;;;;;4952262;29;20047;-79
2021/12/30 11:02:17;;;;;;;29.83;7.13;;;12.20;99.90;;;;;;4952601;28;20047;-80
2021/12/30 11:04:50;;;;;;;26.92;7.57;;;12.20;99.90;;;;;;4972889;28;20051;-80
2021/12/30 11:07:40;;;;;;;21.17;7.32;;;12.30;99.90;;;;;;4970136;28;20058;-79
2021/12/30 11:10:06;;;;;;;24.00;6.35;;;12.20;99.90;;;;;;4985623;28;20053;-79
2021/12/30 11:12:38;;;;;;;25.08;7.45;;;12.30;99.90;;;;;;4965513;28;20181;-81
2021/12/30 11:15:23;;;;;;;22.35;7.32;;;12.30;99.90;;;;;;4954963;28;20046;-80
2021/12/30 11:17:50;;;;;;;24.70;6.75;;;12.20;99.90;;;;;;4972850;28;20058;-78
2021/12/30 11:20:18;;;;;;;27.55;7.60;;;12.30;99.90;;;;;;4956032;28;20046;-79
2021/12/30 11:22:44;;;;;;;31.20;7.10;;;12.30;99.90;;;;;;4971517;28;20058;-78
2021/12/30 11:25:13;;;;;;;34.72;7.75;;;12.30;99.90;;;;;;4970479;28;20110;-78
2021/12/30 11:27:40;;;;;;;32.40;7.30;;;12.30;99.90;;;;;;4956057;28;20062;-79
2021/12/30 11:30:09;;;;;;;30.35;7.93;;;12.30;99.90;;;;;;4954237;28;20050;-79
2021/12/30 11:32:36;;;;;;;31.00;7.22;;;12.20;99.90;;;;;;4972583;28;20057;-80
2021/12/30 11:35:04;;;;;;;26.08;7.03;;;12.20;99.90;;;;;;4955868;28;20156;-78
2021/12/30 11:37:31;;;;;;;35.53;7.97;;;12.20;99.90;;;;;;4972625;28;20058;-78
2021/12/30 11:40:00;;;;;;;36.28;7.97;;;12.10;99.90;;;;;;4939482;28;20058;-79
2021/12/30 11:42:38;;;;;;;33.75;6.72;;;12.20;99.90;;;;;;4939784;28;20487;-78
2021/12/30 11:45:24;;;;;;;42.70;8.27;;;12.20;99.90;;;;;;4959961;28;20058;-79
2021/12/30 11:47:51;;;;;;;35.10;7.23;;;12.10;99.90;;;;;;4932673;28;20396;-78
2021/12/30 11:50:17;;;;;;;;;;;12.10;99.90;;;;;;4955701;28;20484;-78
2021/12/30 11:53:03;;;;;;;28.00;7.53;;;12.10;99.90;;;;;;4940265;28;20032;-76
2021/12/30 11:55:47;;;;;;;36.83;7.45;;;12.10;99.90;;;;;;4955170;28;20085;-77
2021/12/30 11:58:32;;;;;;;35.42;7.85;;;12.20;99.90;;;;;;4955395;28;20113;-77
2021/12/30 12:01:29;;;;;;;36.55;7.03;;;12.10;99.90;;;;;;4948015;28;20078;-77
2021/12/30 12:03:59;;;;;;;29.65;7.72;;;12.10;99.90;;;;;;4923325;29;20523;-82
2021/12/30 12:06:27;;;;;;;32.35;7.20;;;12.10;99.90;;;;;;4941910;29;20051;-77
2021/12/30 12:09:03;;;;;;;34.53;8.43;;;12.10;99.90;;;;;;4953228;28;20111;-77
2021/12/30 12:11:48;;;;;;;33.78;8.27;;;12.10;99.90;;;;;;4955672;28;20042;-77
2021/12/30 12:14:16;;;;;;;32.00;8.35;;;12.10;99.90;;;;;;4953676;28;20058;-77
2021/12/30 12:16:48;;;;;;;35.15;7.95;;;12.10;99.90;;;;;;4955119;28;20881;-77
2021/12/30 12:19:16;;;;;;;34.35;8.02;;;12.20;99.90;;;;;;4955070;28;20055;-77
2021/12/30 12:21:54;;;;;;;29.38;7.93;;;12.20;99.90;;;;;;4955314;28;20129;-77
2021/12/30 12:24:22;;;;;;;25.52;8.23;;;12.20;99.90;;;;;;4954363;28;20062;-77
2021/12/30 12:26:57;;;;;;;26.58;7.43;;;12.20;99.90;;;;;;4954863;28;20109;-77
2021/12/30 12:29:25;;;;;;;38.58;7.18;;;12.20;99.90;;;;;;4953246;28;20058;-76
2021/12/30 12:31:58;;;;;;;32.15;7.70;;;12.30;99.90;;;;;;4943740;28;20055;-77
2021/12/30 12:34:35;;;;;;;28.63;7.32;;;12.30;99.90;;;;;;4933931;28;20062;-77
2021/12/30 12:37:01;;;;;;;22.50;6.90;;;12.30;99.90;;;;;;4949774;28;20129;-80
2021/12/30 12:39:34;;;;;;;;;;;12.40;99.90;;;;;;4940648;28;20118;-79
2021/12/30 12:42:00;;;;;;;25.02;6.55;;;12.40;99.90;;;;;;4962208;28;19962;-81
2021/12/30 12:44:25;;;;;;;20.85;7.00;;;12.40;99.90;;;;;;4940853;28;20075;-78
2021/12/30 12:46:52;;;;;;;23.17;6.57;;;12.40;99.90;;;;;;4964082;28;20043;-77